Terminal Aerodrome Forecast
Issued by NWS

Home | Current Version | Previous Version | Graphics & Text | Print | Product List | Glossary On
Versions: 1 2 3 4 5 6 7 8 9 10 11 12 13 14 15 16 17
000
FTUS43 KTOP 251700
TAFFOE
TAF
KFOE 251727Z 2518/2618 15016G26KT P6SM SCT020 BKN040
     FM252300 20012KT P6SM VCTS SCT020 BKN030CB
     FM260400 21010KT P6SM FEW040 SCT080=

USA.gov is the U.S. government's official web portal to all federal, state and local government web resources and services.